Time;durP1;ratioP1;P1;durP2;ratioP2;P2;SDS_P1;SDS_P2;PMS_P1;PMS_P2;Temp;Humidity;BMP_temperature;BMP_pressure;BME280_temperature;BME280_humidity;BME280_pressure;Samples;Min_cycle;Max_cycle;Signal;HPM_P1;HPM_P2
2022/11/25 00:01:10;;;;;;;;;;;19.30;99.90;;;;;;4975396;28;19930;-77
2022/11/25 00:03:37;;;;;;;;;;;19.30;99.90;;;;;;4975198;28;19926;-77
2022/11/25 05:01:18;;;;;;;;;;;19.10;99.90;;;;;;5647853;23;19930;-79
2022/11/25 05:03:45;;;;;;;;;;;19.10;99.90;;;;;;4974628;28;19941;-78
2022/11/25 05:06:11;;;;;;;;;;;19.10;99.90;;;;;;4975236;28;19926;-78
2022/11/25 05:08:38;;;;;;;;;;;19.10;99.90;;;;;;4975333;28;19934;-77
2022/11/25 05:11:05;;;;;;;;;;;19.10;99.90;;;;;;4974843;28;20298;-79
2022/11/25 05:13:31;;;;;;;;;;;19.10;99.90;;;;;;5016710;23;20018;-83
2022/11/25 05:15:58;;;;;;;;;;;19.20;99.90;;;;;;4978540;28;19926;-84
2022/11/25 05:18:26;;;;;;;;;;;19.10;99.90;;;;;;4978461;28;19950;-83
2022/11/25 05:20:53;;;;;;;;;;;19.40;99.90;;;;;;4979267;28;20292;-83
2022/11/25 05:23:19;;;;;;;;;;;19.10;99.90;;;;;;4979327;28;19941;-83
2022/11/25 05:25:46;;;;;;;;;;;19.10;99.90;;;;;;4978947;28;19926;-84
2022/11/25 05:28:13;;;;;;;;;;;19.20;99.90;;;;;;4978933;28;19926;-84
2022/11/25 05:30:39;;;;;;;;;;;19.10;99.90;;;;;;4979896;28;19933;-82
2022/11/25 05:33:06;;;;;;;;;;;19.10;99.90;;;;;;4980023;28;19926;-83
2022/11/25 05:35:34;;;;;;;;;;;18.90;99.90;;;;;;4979889;28;19926;-81
2022/11/25 05:38:02;;;;;;;;;;;19.10;99.90;;;;;;4978820;28;20389;-81
2022/11/25 05:40:30;;;;;;;;;;;19.10;99.90;;;;;;4979318;28;19970;-82
2022/11/25 05:42:59;;;;;;;;;;;19.00;99.90;;;;;;4978894;28;19930;-81
2022/11/25 05:45:26;;;;;;;;;;;19.10;99.90;;;;;;4979114;28;19934;-81
2022/11/25 05:47:52;;;;;;;;;;;19.10;99.90;;;;;;4978693;28;19933;-81
2022/11/25 05:50:19;;;;;;;;;;;19.00;99.90;;;;;;4978789;28;19949;-81
2022/11/25 05:52:47;;;;;;;;;;;19.00;99.90;;;;;;4979414;28;19933;-81
2022/11/25 05:55:14;;;;;;;;;;;19.10;99.90;;;;;;4978474;28;19926;-81
2022/11/25 05:57:40;;;;;;;;;;;19.10;99.90;;;;;;4978289;28;19926;-81
2022/11/25 06:00:08;;;;;;;;;;;19.20;99.90;;;;;;4978201;28;19930;-81
2022/11/25 06:02:35;;;;;;;;;;;19.10;99.90;;;;;;4978793;28;20026;-80
2022/11/25 06:05:01;;;;;;;;;;;19.10;99.90;;;;;;4978695;28;19926;-80
2022/11/25 06:07:28;;;;;;;;;;;19.10;99.90;;;;;;4978201;28;20490;-80
2022/11/25 06:09:56;;;;;;;;;;;19.00;99.90;;;;;;4979170;28;19926;-80
2022/11/25 06:12:22;;;;;;;;;;;19.00;99.90;;;;;;4978383;28;19930;-80
2022/11/25 06:14:50;;;;;;;;;;;19.10;99.90;;;;;;4978062;28;19926;-80
2022/11/25 06:17:17;;;;;;;;;;;19.10;99.90;;;;;;4983334;28;19926;-80
2022/11/25 06:19:43;;;;;;;;;;;19.10;99.90;;;;;;4981488;28;19926;-80
2022/11/25 06:22:10;;;;;;;;;;;19.10;99.90;;;;;;4981703;28;19927;-80
2022/11/25 06:24:36;;;;;;;;;;;19.10;99.90;;;;;;4980588;28;19926;-79
2022/11/25 06:27:04;;;;;;;;;;;19.00;99.90;;;;;;4980336;28;19933;-79
2022/11/25 06:29:31;;;;;;;;;;;19.10;99.90;;;;;;4979079;28;19933;-79
2022/11/25 06:31:57;;;;;;;;;;;19.10;99.90;;;;;;4980554;28;19957;-79
2022/11/25 06:34:24;;;;;;;;;;;19.00;99.90;;;;;;4980409;28;19926;-79
2022/11/25 06:36:51;;;;;;;;;;;19.00;99.90;;;;;;4979845;28;19933;-79
2022/11/25 06:39:17;;;;;;;;;;;19.10;99.90;;;;;;4979433;28;19926;-79
2022/11/25 06:41:45;;;;;;;;;;;19.10;99.90;;;;;;4979472;28;19926;-79
2022/11/25 06:44:14;;;;;;;;;;;19.10;99.90;;;;;;4979189;28;19936;-79
2022/11/25 06:46:40;;;;;;;;;;;19.00;99.90;;;;;;4979643;28;19926;-79
2022/11/25 06:49:07;;;;;;;;;;;19.00;99.90;;;;;;4979467;28;19930;-79
2022/11/25 06:51:34;;;;;;;;;;;19.00;99.90;;;;;;4978956;28;19926;-79
2022/11/25 06:54:00;;;;;;;;;;;19.00;99.90;;;;;;4979013;28;19926;-79
2022/11/25 06:56:27;;;;;;;;;;;19.00;99.90;;;;;;4979095;28;20002;-79
2022/11/25 06:58:55;;;;;;;;;;;19.00;99.90;;;;;;4979038;28;19926;-79
2022/11/25 07:01:23;;;;;;;;;;;19.00;99.90;;;;;;4979499;28;19934;-79
2022/11/25 07:03:51;;;;;;;;;;;19.00;99.90;;;;;;4978755;28;19949;-79
2022/11/25 07:06:18;;;;;;;;;;;19.00;99.90;;;;;;4978784;28;19933;-79
2022/11/25 07:08:44;;;;;;;;;;;19.00;99.90;;;;;;4978865;28;19933;-79
2022/11/25 07:11:14;;;;;;;;;;;19.00;99.90;;;;;;4978385;28;20396;-79
2022/11/25 07:13:40;;;;;;;;;;;19.00;99.90;;;;;;4978170;28;19948;-79
2022/11/25 07:16:08;;;;;;;;;;;19.10;99.90;;;;;;4978506;28;19937;-79
2022/11/25 07:18:37;;;;;;;;;;;19.00;99.90;;;;;;4978765;28;19933;-79
2022/11/25 07:21:05;;;;;;;;;;;19.00;99.90;;;;;;4977834;28;19934;-79
2022/11/25 07:23:32;;;;;;;;;;;19.00;99.90;;;;;;4978645;28;20345;-79
2022/11/25 07:26:03;;;;;;;;;;;19.00;99.90;;;;;;4978880;28;19926;-79
2022/11/25 07:28:29;;;;;;;;;;;19.00;99.90;;;;;;4978151;28;19927;-80
2022/11/25 07:30:56;;;;;;;;;;;19.00;99.90;;;;;;4978299;28;20408;-80
2022/11/25 07:33:22;;;;;;;;;;;19.10;99.90;;;;;;4978323;28;19930;-81
2022/11/25 07:35:50;;;;;;;;;;;19.10;99.90;;;;;;4978140;28;19926;-81
2022/11/25 07:38:17;;;;;;;;;;;19.10;99.90;;;;;;4977956;28;20290;-80
2022/11/25 07:40:43;;;;;;;;;;;19.10;99.90;;;;;;4977881;28;19949;-80
2022/11/25 07:43:10;;;;;;;;;;;19.10;99.90;;;;;;4978528;28;19933;-79
2022/11/25 07:45:36;;;;;;;;;;;19.10;99.90;;;;;;4978031;28;19932;-80
2022/11/25 07:48:03;;;;;;;;;;;19.20;99.90;;;;;;4977956;28;20309;-80
2022/11/25 07:50:30;;;;;;;;;;;19.20;99.90;;;;;;4978123;28;19948;-80
2022/11/25 07:52:58;;;;;;;;;;;19.20;99.90;;;;;;4977997;28;19930;-79
2022/11/25 07:55:24;;;;;;;;;;;19.20;99.90;;;;;;4977843;28;19926;-79
2022/11/25 07:57:51;;;;;;;;;;;19.20;99.90;;;;;;4977703;28;20305;-79
2022/11/25 08:00:18;;;;;;;;;;;19.20;99.90;;;;;;4977507;28;20267;-79
2022/11/25 08:02:45;;;;;;;;;;;19.30;99.90;;;;;;4978053;28;19926;-79
2022/11/25 08:05:11;;;;;;;;;;;19.30;99.90;;;;;;4978562;28;19948;-81
2022/11/25 08:07:38;;;;;;;;;;;19.30;99.90;;;;;;4978453;28;19926;-81
2022/11/25 08:10:06;;;;;;;;;;;19.30;99.90;;;;;;4976191;28;20294;-77
2022/11/25 08:12:33;;;;;;;;;;;19.30;99.90;;;;;;4975053;28;20385;-77
2022/11/25 08:15:00;;;;;;;;;;;19.20;99.90;;;;;;4974763;28;19926;-77
2022/11/25 08:17:26;;;;;;;;;;;19.30;99.90;;;;;;4975286;28;19927;-77
2022/11/25 08:19:54;;;;;;;;;;;19.30;99.90;;;;;;4975196;28;19930;-77
2022/11/25 08:22:20;;;;;;;;;;;19.30;99.90;;;;;;4974963;28;20397;-77
2022/11/25 08:24:47;;;;;;;;;;;19.40;99.90;;;;;;4975054;28;19926;-77
2022/11/25 08:27:15;;;;;;;;;;;19.40;99.90;;;;;;4975138;28;19933;-77
2022/11/25 08:29:41;;;;;;;;;;;19.50;99.90;;;;;;4975116;28;19927;-77
2022/11/25 08:32:08;;;;;;;;;;;19.50;99.90;;;;;;4975102;28;20054;-77
2022/11/25 08:34:35;;;;;;;;;;;19.50;99.90;;;;;;4974991;28;20130;-77
2022/11/25 08:37:01;;;;;;;;;;;19.60;99.90;;;;;;4975139;28;19926;-76
2022/11/25 08:39:29;;;;;;;;;;;19.60;99.90;;;;;;4975085;28;19933;-76
2022/11/25 08:41:56;;;;;;;;;;;19.70;99.90;;;;;;4975184;28;19926;-75
2022/11/25 08:44:27;;;;;;;;;;;19.70;99.90;;;;;;4975039;28;19981;-76
2022/11/25 08:46:53;;;;;;;;;;;19.70;99.90;;;;;;4975012;28;19936;-76
2022/11/25 08:49:20;;;;;;;;;;;19.70;99.90;;;;;;4975064;28;19926;-77
2022/11/25 08:51:48;;;;;;;;;;;19.70;99.90;;;;;;4975225;28;19926;-76
2022/11/25 08:54:14;;;;;;;;;;;19.80;99.90;;;;;;4978793;28;19926;-76
2022/11/25 08:56:42;;;;;;;;;;;19.70;99.90;;;;;;4978603;28;20403;-76
2022/11/25 08:59:08;;;;;;;;;;;19.70;99.90;;;;;;4978820;28;19926;-76
2022/11/25 09:01:36;;;;;;;;;;;20.20;99.90;;;;;;4978643;28;19933;-76
2022/11/25 09:04:03;;;;;;;;;;;19.70;99.90;;;;;;4978426;28;19930;-76
2022/11/25 09:06:30;;;;;;;;;;;19.70;99.90;;;;;;4979623;28;19950;-82
2022/11/25 09:08:57;;;;;;;;;;;19.70;99.90;;;;;;4980126;28;19926;-82
2022/11/25 09:11:24;;;;;;;;;;;19.70;99.90;;;;;;4980091;28;19930;-82
2022/11/25 09:13:50;;;;;;;;;;;19.70;99.90;;;;;;4980175;28;19926;-82
2022/11/25 09:16:17;;;;;;;;;;;19.70;99.90;;;;;;4980333;28;19926;-83
2022/11/25 09:18:45;;;;;;;;;;;19.70;99.90;;;;;;4979874;28;20020;-81
2022/11/25 09:21:12;;;;;;;;;;;19.70;99.90;;;;;;4979565;28;20412;-80
2022/11/25 09:23:39;;;;;;;;;;;19.70;99.90;;;;;;4979785;28;20313;-80
2022/11/25 09:26:06;;;;;;;;;;;19.70;99.90;;;;;;4979804;28;19926;-81
2022/11/25 09:28:33;;;;;;;;;;;19.70;99.90;;;;;;4979269;28;20415;-81
2022/11/25 09:31:00;;;;;;;;;;;19.60;99.90;;;;;;4979330;28;19934;-82
2022/11/25 09:33:26;;;;;;;;;;;19.70;99.90;;;;;;4979091;28;20378;-81
2022/11/25 09:35:54;;;;;;;;;;;19.70;99.90;;;;;;4979251;28;19953;-80
2022/11/25 09:38:21;;;;;;;;;;;19.70;99.90;;;;;;4979116;28;19926;-80
2022/11/25 09:40:51;;;;;;;;;;;19.70;99.90;;;;;;4978697;28;19926;-78
2022/11/25 09:49:00;;;;;;;;;;;19.70;99.90;;;;;;4968418;28;20068;-78
2022/11/25 09:51:35;;;;;;;;;;;19.70;99.90;;;;;;4978618;28;20408;-77
2022/11/25 09:54:07;;;;;;;;;;;19.70;99.90;;;;;;4977941;28;19926;-78
2022/11/25 09:56:35;;;;;;;;;;;19.70;99.90;;;;;;4977861;28;19930;-77
2022/11/25 09:59:05;;;;;;;;;;;19.70;99.90;;;;;;4977998;28;20021;-78
2022/11/25 10:01:34;;;;;;;;;;;19.70;99.90;;;;;;4978201;28;19934;-80
2022/11/25 10:04:02;;;;;;;;;;;19.70;99.90;;;;;;4977195;28;20045;-78
2022/11/25 10:06:31;;;;;;;;;;;19.70;99.90;;;;;;4977786;28;19926;-78
2022/11/25 10:08:58;;;;;;;;;;;19.70;99.90;;;;;;4977767;28;20307;-79
2022/11/25 10:11:30;;;;;;;;;;;19.70;99.90;;;;;;4978127;28;19926;-79
2022/11/25 10:13:59;;;;;;;;;;;19.70;99.90;;;;;;4979193;28;19926;-80
2022/11/25 10:16:30;;;;;;;;;;;19.70;99.90;;;;;;4978399;28;19934;-78
2022/11/25 10:18:59;;;;;;;;;;;19.70;99.90;;;;;;4978258;28;19927;-79
2022/11/25 10:21:25;;;;;;;;;;;19.70;99.90;;;;;;4978157;28;19933;-79
2022/11/25 10:23:53;;;;;;;;;;;19.70;99.90;;;;;;4977308;28;20301;-78
2022/11/25 10:26:22;;;;;;;;;;;19.70;99.90;;;;;;4977970;28;19926;-77
2022/11/25 10:28:51;;;;;;;;;;;19.70;99.90;;;;;;4977649;28;19926;-76
2022/11/25 10:31:19;;;;;;;;;;;19.70;99.90;;;;;;4977345;28;19933;-77
2022/11/25 10:33:47;;;;;;;;;;;19.70;99.90;;;;;;4977502;28;19934;-75
2022/11/25 10:36:15;;;;;;;;;;;19.70;99.90;;;;;;4976868;28;20349;-76
2022/11/25 10:38:44;;;;;;;;;;;19.80;99.90;;;;;;4977193;28;20013;-75
2022/11/25 10:41:15;;;;;;;;;;;19.70;99.90;;;;;;4976927;28;20405;-76
2022/11/25 10:43:42;;;;;;;;;;;19.70;99.90;;;;;;4976908;28;19930;-76
2022/11/25 10:46:14;;;;;;;;;;;19.70;99.90;;;;;;4976851;28;20025;-78
2022/11/25 10:48:47;;;;;;;;;;;19.70;99.90;;;;;;4976792;28;19929;-78
2022/11/25 10:51:19;;;;;;;;;;;19.70;99.90;;;;;;4977732;28;19926;-78
2022/11/25 10:54:01;;;;;;;;;;;19.70;99.90;;;;;;4976665;28;19927;-77
2022/11/25 10:56:29;;;;;;;;;;;19.70;99.90;;;;;;4975975;28;19926;-78
2022/11/25 10:58:55;;;;;;;;;;;19.70;99.90;;;;;;4977208;28;19926;-78
2022/11/25 11:01:24;;;;;;;;;;;19.70;99.90;;;;;;4976789;28;19933;-79
2022/11/25 11:03:51;;;;;;;;;;;19.70;99.90;;;;;;4976521;28;19934;-78
2022/11/25 11:06:31;;;;;;;;;;;19.60;99.90;;;;;;4976769;28;19926;-79
2022/11/25 11:08:58;;;;;;;;;;;19.60;99.90;;;;;;4977347;28;19926;-78
2022/11/25 11:11:25;;;;;;;;;;;19.60;99.90;;;;;;4977148;28;19930;-78
2022/11/25 11:13:59;;;;;;;;;;;19.60;99.90;;;;;;4976386;28;19926;-78
2022/11/25 11:16:30;;;;;;;;;;;19.60;99.90;;;;;;4976171;28;19997;-78
2022/11/25 11:18:57;;;;;;;;;;;19.60;99.90;;;;;;4976151;28;20013;-78
2022/11/25 11:21:25;;;;;;;;;;;19.60;99.90;;;;;;4976425;28;19927;-77
2022/11/25 11:23:52;;;;;;;;;;;19.60;99.90;;;;;;4976368;28;19933;-78
2022/11/25 11:26:22;;;;;;;;;;;19.60;99.90;;;;;;4976367;28;19933;-79
2022/11/25 11:28:56;;;;;;;;;;;19.60;99.90;;;;;;4999687;23;19917;-80
2022/11/25 11:31:26;;;;;;;;;;;19.60;99.90;;;;;;4976411;28;20404;-80
2022/11/25 11:33:57;;;;;;;;;;;19.60;99.90;;;;;;4977011;28;19926;-81
2022/11/25 11:36:33;;;;;;;;;;;19.60;99.90;;;;;;4977028;28;20377;-81
2022/11/25 11:39:11;;;;;;;;;;;19.60;99.90;;;;;;4976918;28;19926;-81
2022/11/25 11:41:39;;;;;;;;;;;19.60;99.90;;;;;;4976758;28;19949;-80
2022/11/25 11:44:08;;;;;;;;;;;20.00;99.90;;;;;;4976666;28;19926;-80
2022/11/25 11:46:49;;;;;;;;;;;19.60;99.90;;;;;;4976719;28;19933;-80
2022/11/25 11:49:26;;;;;;;;;;;19.60;99.90;;;;;;4977201;28;19933;-81
2022/11/25 11:51:57;;;;;;;;;;;19.60;99.90;;;;;;4977792;28;19926;-80
2022/11/25 11:54:28;;;;;;;;;;;19.60;99.90;;;;;;4977076;28;19927;-78
2022/11/25 11:56:57;;;;;;;;;;;19.60;99.90;;;;;;4976712;28;19930;-79
2022/11/25 11:59:32;;;;;;;;;;;19.60;99.90;;;;;;4977051;28;20378;-79
2022/11/25 12:02:09;;;;;;;;;;;19.60;99.90;;;;;;4977743;28;19933;-79
2022/11/25 12:04:39;;;;;;;;;;;19.60;99.90;;;;;;4976247;28;20370;-79
2022/11/25 12:07:07;;;;;;;;;;;19.60;99.90;;;;;;4976442;28;19937;-79
2022/11/25 12:09:44;;;;;;;;;;;19.70;99.90;;;;;;4976383;28;19933;-79
2022/11/25 12:12:14;;;;;;;;;;;19.60;99.90;;;;;;4977361;28;19932;-79
2022/11/25 12:14:42;;;;;;;;;;;19.60;99.90;;;;;;4978464;28;19926;-79
2022/11/25 12:17:13;;;;;;;;;;;19.50;99.90;;;;;;4981018;28;19926;-79
2022/11/25 12:19:43;;;;;;;;;;;19.50;99.90;;;;;;4978256;28;19933;-79
2022/11/25 12:22:14;;;;;;;;;;;19.50;99.90;;;;;;4977050;28;20378;-79
2022/11/25 12:24:46;;;;;;;;;;;19.50;99.90;;;;;;4977871;28;19926;-81
2022/11/25 12:27:15;;;;;;;;;;;19.50;99.90;;;;;;4976213;28;20394;-80
2022/11/25 12:29:44;;;;;;;;;;;19.60;99.90;;;;;;4979494;28;19926;-79
2022/11/25 12:32:25;;;;;;;;;;;19.50;99.90;;;;;;4980813;28;19926;-80
2022/11/25 12:34:56;;;;;;;;;;;19.50;99.90;;;;;;4981029;28;19933;-81
2022/11/25 12:37:28;;;;;;;;;;;19.40;99.90;;;;;;4979931;28;19926;-80
2022/11/25 12:40:00;;;;;;;;;;;19.60;99.90;;;;;;4979662;28;19926;-80
2022/11/25 12:42:28;;;;;;;;;;;19.60;99.90;;;;;;4979545;28;19926;-81
2022/11/25 12:44:59;;;;;;;;;;;19.60;99.90;;;;;;4980294;28;19926;-79
2022/11/25 12:47:27;;;;;;;;;;;19.60;99.90;;;;;;4980135;28;19930;-82
2022/11/25 12:49:55;;;;;;;;;;;19.60;99.90;;;;;;4979565;28;19926;-84
2022/11/25 12:52:32;;;;;;;;;;;19.60;99.90;;;;;;4979184;28;19958;-79
2022/11/25 12:55:17;;;;;;;;;;;19.60;99.90;;;;;;4979362;28;19933;-79
2022/11/25 12:58:02;;;;;;;;;;;19.60;99.90;;;;;;4979155;28;19926;-79
2022/11/25 13:00:36;;;;;;;;;;;19.60;99.90;;;;;;4982682;28;19950;-78
2022/11/25 13:03:27;;;;;;;;;;;19.60;99.90;;;;;;4982014;28;19926;-79
2022/11/25 13:06:15;;;;;;;;;;;19.60;99.90;;;;;;4981232;28;20440;-82
2022/11/25 13:08:54;;;;;;;;;;;19.70;99.90;;;;;;4981117;28;19926;-78
2022/11/25 13:11:29;;;;;;;;;;;19.70;99.90;;;;;;4978587;28;19965;-77
2022/11/25 13:13:59;;;;;;;;;;;19.60;99.90;;;;;;4978336;28;19930;-77
2022/11/25 13:16:26;;;;;;;;;;;19.70;99.90;;;;;;4979452;28;19930;-79
2022/11/25 13:18:54;;;;;;;;;;;19.70;99.90;;;;;;4978122;28;19988;-79
2022/11/25 13:21:23;;;;;;;;;;;19.70;99.90;;;;;;4978096;28;20385;-78
2022/11/25 13:23:51;;;;;;;;;;;19.70;99.90;;;;;;4978500;28;19978;-78
2022/11/25 13:26:36;;;;;;;;;;;19.80;99.90;;;;;;4978255;28;19926;-78
2022/11/25 13:29:26;;;;;;;;;;;19.80;99.90;;;;;;4977770;28;20444;-78
2022/11/25 13:31:57;;;;;;;;;;;19.90;99.90;;;;;;4978285;28;20389;-79
2022/11/25 13:34:26;;;;;;;;;;;19.90;99.90;;;;;;4979610;28;19926;-78
2022/11/25 13:36:53;;;;;;;;;;;20.00;99.90;;;;;;4981691;28;19979;-77
2022/11/25 13:39:29;;;;;;;;;;;20.00;99.90;;;;;;4982388;28;19926;-78
2022/11/25 13:42:00;;;;;;;;;;;20.10;99.90;;;;;;4983082;28;19930;-77
2022/11/25 13:44:30;;;;;;;;;;;20.10;99.90;;;;;;4982515;28;19926;-76
2022/11/25 13:47:00;;;;;;;;;;;20.10;99.90;;;;;;4982727;28;19926;-76
2022/11/25 13:49:30;;;;;;;;;;;20.20;99.90;;;;;;4982739;28;19926;-75
2022/11/25 13:51:58;;;;;;;;;;;20.20;99.90;;;;;;4982841;28;19926;-76
2022/11/25 13:54:26;;;;;;;;;;;20.30;99.90;;;;;;4978690;28;19926;-78
2022/11/25 13:57:11;;;;;;;;;;;20.30;99.90;;;;;;4977722;28;19926;-76
2022/11/25 13:59:38;;;;;;;;;;;20.30;99.90;;;;;;4964473;28;20381;-76
2022/11/25 14:02:23;;;;;;;;;;;20.40;99.90;;;;;;4977522;28;19926;-77
2022/11/25 14:04:55;;;;;;;;;;;20.40;99.90;;;;;;4977481;28;19926;-77
2022/11/25 14:07:27;;;;;;;;;;;20.40;99.90;;;;;;4977718;28;19926;-77
2022/11/25 14:10:00;;;;;;;;;;;20.40;99.90;;;;;;4977354;28;20298;-76
2022/11/25 14:12:33;;;;;;;;;;;20.40;99.90;;;;;;4979183;28;19926;-80
2022/11/25 14:15:04;;;;;;;;;;;20.40;99.90;;;;;;4978132;28;20029;-78
2022/11/25 14:17:47;;;;;;;;;;;20.40;99.90;;;;;;4978947;28;19932;-79
2022/11/25 14:20:23;;;;;;;;;;;20.40;99.90;;;;;;4977960;28;19926;-78
2022/11/25 14:23:02;;;;;;;;;;;20.40;99.90;;;;;;4977092;28;20386;-78
2022/11/25 14:25:42;;;;;;;;;;;20.40;99.90;;;;;;4977438;28;19926;-78
2022/11/25 14:28:15;;;;;;;;;;;20.40;99.90;;;;;;4977099;28;19926;-78
2022/11/25 14:30:44;;;;;;;;;;;20.40;99.90;;;;;;4976631;28;20282;-78
2022/11/25 14:33:13;;;;;;;;;;;20.40;99.90;;;;;;4977131;28;20413;-78
2022/11/25 14:35:43;;;;;;;;;;;20.40;99.90;;;;;;4978191;28;19926;-77
2022/11/25 14:38:13;;;;;;;;;;;20.40;99.90;;;;;;4977533;28;19933;-80
2022/11/25 14:40:42;;;;;;;;;;;20.40;99.90;;;;;;4978004;28;19926;-79
2022/11/25 14:43:12;;;;;;;;;;;20.40;99.90;;;;;;4977979;28;19930;-81
2022/11/25 14:45:39;;;;;;;;;;;20.30;99.90;;;;;;4978253;28;19926;-83
2022/11/25 14:48:15;;;;;;;;;;;20.40;99.90;;;;;;4978587;28;20040;-83
2022/11/25 14:50:54;;;;;;;;;;;20.30;99.90;;;;;;4977955;28;19926;-81
2022/11/25 14:53:21;;;;;;;;;;;20.30;99.90;;;;;;4979228;28;19926;-81
2022/11/25 14:55:48;;;;;;;;;;;20.30;99.90;;;;;;4978898;28;20083;-82
2022/11/25 14:58:15;;;;;;;;;;;20.30;99.90;;;;;;4978933;28;20385;-82
2022/11/25 15:00:49;;;;;;;;;;;20.30;99.90;;;;;;4979388;28;19933;-82
2022/11/25 15:03:18;;;;;;;;;;;20.10;99.90;;;;;;4978854;28;19933;-82
2022/11/25 15:05:53;;;;;;;;;;;20.40;99.90;;;;;;4979420;28;19930;-82
2022/11/25 15:08:23;;;;;;;;;;;20.20;99.90;;;;;;4978521;28;19932;-82
2022/11/25 15:10:51;;;;;;;;;;;20.20;99.90;;;;;;4980030;28;20021;-82
2022/11/25 15:13:27;;;;;;;;;;;20.20;99.90;;;;;;4979150;28;20021;-82
2022/11/25 15:15:54;;;;;;;;;;;20.20;99.90;;;;;;4979667;28;19926;-82
2022/11/25 15:18:21;;;;;;;;;;;20.10;99.90;;;;;;4980008;28;20021;-82
2022/11/25 15:20:50;;;;;;;;;;;20.10;99.90;;;;;;4979486;28;19982;-83
2022/11/25 15:23:19;;;;;;;;;;;20.10;99.90;;;;;;4978744;28;19930;-82
2022/11/25 15:25:50;;;;;;;;;;;20.10;99.90;;;;;;4978232;28;19926;-82
2022/11/25 15:28:17;;;;;;;;;;;20.10;99.90;;;;;;4977844;28;20412;-82
2022/11/25 15:30:54;;;;;;;;;;;20.10;99.90;;;;;;4979352;28;19933;-82
2022/11/25 15:33:22;;;;;;;;;;;20.10;99.90;;;;;;4979507;28;19926;-82
2022/11/25 15:35:48;;;;;;;;;;;20.00;99.90;;;;;;4980619;28;19926;-82
2022/11/25 15:38:18;;;;;;;;;;;20.00;99.90;;;;;;4979983;28;19926;-82
2022/11/25 15:40:55;;;;;;;;;;;20.00;99.90;;;;;;4980726;28;20437;-81
2022/11/25 15:43:23;;;;;;;;;;;20.10;99.90;;;;;;4981353;28;19932;-81
2022/11/25 15:45:51;;;;;;;;;;;20.30;99.90;;;;;;4981040;28;19926;-81
2022/11/25 15:48:22;;;;;;;;;;;20.00;99.90;;;;;;4979689;28;19926;-81
2022/11/25 15:50:49;;;;;;;;;;;20.00;99.90;;;;;;4980862;28;19934;-81
2022/11/25 15:53:22;;;;;;;;;;;19.70;99.90;;;;;;4980105;28;19926;-81
2022/11/25 15:55:48;;;;;;;;;;;20.00;99.90;;;;;;4980319;28;19926;-81
2022/11/25 15:58:18;;;;;;;;;;;20.10;99.90;;;;;;4979960;28;19926;-81
2022/11/25 16:00:59;;;;;;;;;;;20.00;99.90;;;;;;4979075;28;19934;-82
2022/11/25 16:03:25;;;;;;;;;;;20.00;99.90;;;;;;4979479;28;19926;-85
2022/11/25 16:05:53;;;;;;;;;;;20.00;99.90;;;;;;4980812;28;19926;-82
2022/11/25 16:08:27;;;;;;;;;;;20.00;99.90;;;;;;4980038;28;19926;-82
2022/11/25 16:10:58;;;;;;;;;;;20.00;99.90;;;;;;4979461;28;19934;-82
2022/11/25 16:13:33;;;;;;;;;;;20.00;99.90;;;;;;4982338;28;19926;-81
2022/11/25 16:16:02;;;;;;;;;;;20.00;99.90;;;;;;4976194;28;20366;-82
2022/11/25 16:18:31;;;;;;;;;;;20.00;99.90;;;;;;4976142;28;19926;-82
2022/11/25 16:20:59;;;;;;;;;;;20.00;99.90;;;;;;4975759;28;19930;-82
2022/11/25 16:23:26;;;;;;;;;;;20.00;99.90;;;;;;4975422;28;19926;-82
2022/11/25 16:25:55;;;;;;;;;;;20.00;99.90;;;;;;4977486;28;19926;-82
2022/11/25 16:28:23;;;;;;;;;;;19.90;99.90;;;;;;4982252;28;19925;-82
2022/11/25 16:30:52;;;;;;;;;;;19.90;99.90;;;;;;4981094;28;20294;-82
2022/11/25 16:33:19;;;;;;;;;;;19.90;99.90;;;;;;4981302;28;19956;-82
2022/11/25 16:35:45;;;;;;;;;;;19.80;99.90;;;;;;4982149;28;19933;-82
2022/11/25 16:38:13;;;;;;;;;;;20.00;99.90;;;;;;4982576;28;19933;-82
2022/11/25 16:40:40;;;;;;;;;;;20.90;99.90;;;;;;4976857;28;20295;-82
2022/11/25 16:43:27;;;;;;;;;;;19.30;99.90;;;;;;4983499;28;20030;-82
2022/11/25 16:46:04;;;;;;;;;;;19.70;99.90;;;;;;4980105;28;20363;-82
2022/11/25 16:48:30;;;;;;;;;;;20.00;99.90;;;;;;4979558;28;20360;-82
2022/11/25 16:50:57;;;;;;;;;;;19.80;99.90;;;;;;4979728;28;19938;-82
2022/11/25 16:53:23;;;;;;;;;;;19.80;99.90;;;;;;4980810;28;19926;-82
2022/11/25 16:55:50;;;;;;;;;;;19.90;99.90;;;;;;4981198;28;19981;-81
2022/11/25 16:58:18;;;;;;;;;;;19.70;99.90;;;;;;4981044;28;19930;-82
2022/11/25 17:00:48;;;;;;;;;;;20.70;99.90;;;;;;4980072;28;19926;-82
2022/11/25 17:03:16;;;;;;;;;;;19.70;99.90;;;;;;4980243;28;20294;-82
2022/11/25 17:05:44;;;;;;;;;;;19.80;99.90;;;;;;4981274;28;19933;-82
2022/11/25 17:08:39;;;;;;;;;;;19.20;99.90;;;;;;4982575;28;20377;-82
2022/11/25 17:11:05;;;;;;;;;;;21.00;99.90;;;;;;4974645;28;20317;-82
2022/11/25 17:13:32;;;;;;;;;;;19.90;99.90;;;;;;4983902;28;19932;-82
2022/11/25 17:15:59;;;;;;;;;;;20.40;99.90;;;;;;4987256;28;20362;-82
2022/11/25 17:18:27;;;;;;;;;;;19.70;99.90;;;;;;4987848;28;19926;-82
2022/11/25 17:20:54;;;;;;;;;;;19.70;99.90;;;;;;4985808;28;19926;-82
2022/11/25 17:23:24;;;;;;;;;;;19.20;99.90;;;;;;4981046;28;19958;-82
2022/11/25 17:25:51;;;;;;;;;;;19.60;99.90;;;;;;4982752;28;19926;-82
2022/11/25 17:28:19;;;;;;;;;;;20.40;99.90;;;;;;4980540;28;19933;-83
2022/11/25 17:30:46;;;;;;;;;;;18.80;99.90;;;;;;4978122;28;19926;-83
2022/11/25 17:33:14;;;;;;;;;;;20.00;99.90;;;;;;4978431;28;19933;-83
2022/11/25 17:35:42;;;;;;;;;;;19.70;99.90;;;;;;4978233;28;19927;-84
2022/11/25 17:38:11;;;;;;;;;;;19.90;99.90;;;;;;4978254;28;19937;-83
2022/11/25 17:40:38;;;;;;;;;;;19.10;99.90;;;;;;4978266;28;19937;-83
2022/11/25 17:43:04;;;;;;;;;;;19.50;99.90;;;;;;4978258;28;19926;-83
2022/11/25 17:45:31;;;;;;;;;;;19.90;99.90;;;;;;4979832;28;20290;-84
2022/11/25 17:47:57;;;;;;;;;;;19.90;99.90;;;;;;4981048;28;19937;-84
2022/11/25 17:50:25;;;;;;;;;;;19.50;99.90;;;;;;4979951;28;19927;-82
2022/11/25 17:52:53;;;;;;;;;;;19.50;99.90;;;;;;4978640;28;19948;-83
2022/11/25 17:55:20;;;;;;;;;;;20.10;99.90;;;;;;4978319;28;19934;-83
2022/11/25 17:57:47;;;;;;;;;;;20.10;99.90;;;;;;4978578;28;19933;-82
2022/11/25 18:00:15;;;;;;;;;;;20.10;99.90;;;;;;4978053;28;19926;-82
2022/11/25 18:02:41;;;;;;;;;;;20.20;99.90;;;;;;4981308;28;19926;-82
2022/11/25 18:05:14;;;;;;;;;;;20.20;99.90;;;;;;4978461;28;20029;-82
2022/11/25 18:07:41;;;;;;;;;;;20.20;99.90;;;;;;4978203;28;19926;-82
2022/11/25 18:10:10;;;;;;;;;;;20.20;99.90;;;;;;4977530;28;19930;-83
2022/11/25 18:12:37;;;;;;;;;;;20.20;99.90;;;;;;4978471;28;19933;-82
2022/11/25 18:15:07;;;;;;;;;;;20.30;99.90;;;;;;4977624;28;20021;-82
2022/11/25 18:17:34;;;;;;;;;;;20.30;99.90;;;;;;4977639;28;19926;-83
2022/11/25 18:20:01;;;;;;;;;;;20.30;99.90;;;;;;4977345;28;20024;-82
2022/11/25 18:22:29;;;;;;;;;;;20.30;99.90;;;;;;4977155;28;20378;-83
2022/11/25 18:24:55;;;;;;;;;;;20.30;99.90;;;;;;4976538;28;19926;-82
2022/11/25 18:27:25;;;;;;;;;;;20.30;99.90;;;;;;4978221;28;19933;-83
2022/11/25 18:29:52;;;;;;;;;;;20.40;99.90;;;;;;4978795;28;20016;-83
2022/11/25 18:32:19;;;;;;;;;;;20.40;99.90;;;;;;4978210;28;20374;-82
2022/11/25 18:34:46;;;;;;;;;;;20.40;99.90;;;;;;4978033;28;19932;-81
2022/11/25 18:37:13;;;;;;;;;;;20.40;99.90;;;;;;4977906;28;20397;-83
2022/11/25 18:39:40;;;;;;;;;;;20.30;99.90;;;;;;4977687;28;19926;-83
2022/11/25 18:42:07;;;;;;;;;;;20.30;99.90;;;;;;4977006;28;20305;-83
2022/11/25 18:44:36;;;;;;;;;;;20.30;99.90;;;;;;4977085;28;19926;-82
2022/11/25 18:47:04;;;;;;;;;;;20.50;99.90;;;;;;4976946;28;19927;-82
2022/11/25 18:49:30;;;;;;;;;;;20.40;99.90;;;;;;4977012;28;19933;-82
2022/11/25 18:51:57;;;;;;;;;;;20.30;99.90;;;;;;4977355;28;20382;-82
2022/11/25 18:54:23;;;;;;;;;;;20.30;99.90;;;;;;4978038;28;20287;-82
2022/11/25 18:56:51;;;;;;;;;;;20.40;99.90;;;;;;4980403;28;19926;-82
2022/11/25 18:59:20;;;;;;;;;;;20.30;99.90;;;;;;4980492;28;19926;-82
2022/11/25 19:01:48;;;;;;;;;;;20.30;99.90;;;;;;4980739;28;20293;-82
2022/11/25 19:04:15;;;;;;;;;;;20.30;99.90;;;;;;4978246;28;19933;-83
2022/11/25 19:06:42;;;;;;;;;;;20.30;99.90;;;;;;4978402;28;19926;-83
2022/11/25 19:09:08;;;;;;;;;;;20.60;99.90;;;;;;4977404;28;19965;-82
2022/11/25 19:11:37;;;;;;;;;;;20.30;99.90;;;;;;4977699;28;19926;-82
2022/11/25 19:14:07;;;;;;;;;;;20.30;99.90;;;;;;4977251;28;20386;-83
2022/11/25 19:16:34;;;;;;;;;;;20.20;99.90;;;;;;4977459;28;19930;-82
2022/11/25 19:19:02;;;;;;;;;;;20.20;99.90;;;;;;4977761;28;19933;-82
2022/11/25 19:21:29;;;;;;;;;;;20.20;99.90;;;;;;4980641;28;19930;-82
2022/11/25 19:23:56;;;;;;;;;;;20.20;99.90;;;;;;4981237;28;19980;-82
2022/11/25 19:26:24;;;;;;;;;;;20.20;99.90;;;;;;4980795;28;20259;-82
2022/11/25 19:28:54;;;;;;;;;;;20.20;99.90;;;;;;4981094;28;19926;-82